VAM Template | Jonatha

Virtual Airlines Manager! A new look to your va. By: Jonatha Silva




 METAR ET TAF INFORMATION
METAR FOR TFFR
ADDS - METARS form results

(0451 UTC 30 May 2020)
Data provider http://aviationweather.gov/metar/data/
 
METAR text: TFFR 300430Z AUTO 10004KT CAVOK 26/22 Q1016
Conditions at: TFFR (LE RAIZET , GP) observed 0430 UTC 30 May 2020
Temperature: 26.0°C (79°F)
Dewpoint: 22.0°C (72°F) [RH = 79%]
Pressure (altimeter): 30.00 inches Hg (1016.0 mb)
Winds: from the E (100 degrees) at 5 MPH (4 knots; 2.1 m/s)
Visibility: 6 or more miles (10+ km)
Ceiling: ceiling and visibility are OK
Clouds: unknown
Weather: no significant weather observed at this time

METAR text: TFFR 300400Z AUTO 11005KT CAVOK 26/23 Q1016
Conditions at: TFFR (LE RAIZET , GP) observed 0400 UTC 30 May 2020
Temperature: 26.0°C (79°F)
Dewpoint: 23.0°C (73°F) [RH = 84%]
Pressure (altimeter): 30.00 inches Hg (1016.0 mb)
Winds: from the ESE (110 degrees) at 6 MPH (5 knots; 2.6 m/s)
Visibility: 6 or more miles (10+ km)
Ceiling: ceiling and visibility are OK
Clouds: unknown
Weather: no significant weather observed at this time

Forecast for: TFFR (LE RAIZET , GP)
Text: TAF TFFR 292300Z 3000/3024 12008KT 9999 SCT030
Forecast period: 0000 UTC 30 May 2020 to 0000 UTC 31 May 2020
Forecast type: FROM: standard forecast or significant change
Winds: from the ESE (120 degrees) at 9 MPH (8 knots; 4.1 m/s)
Visibility: 6 or more miles 10+ km)
Ceiling: at least 12,000 feet AGL
Clouds: scattered clouds at 3000 feet AGL
Weather: no significant weather forecast for this period
Text: PROB30
Forecast period: 1200 to 1500 UTC 30 May 2020
Forecast type: TEMPORARY: The following changes expected for less than half the time period
Visibility: 2.49 miles (4.01 km)
Ceiling: at least 12,000 feet AGL
Clouds: scattered clouds at 2000 feet AGL
Weather: SHRA  (rain showers)

 AÉROPORT DE AÉROPORT

 INFORMATIONS DE PISTE
Piste 12 Longueur de la piste 11499 ft Largeur de la piste 148 ft
Élévation de la piste 5 ft Seuil de la piste déplacés 1312 ft Runway heading 101
Piste 30 Longueur de la piste 11499 ft Largeur de la piste 148 ft
Élévation de la piste 32 ft Seuil de la piste déplacés 820 ft Runway heading 281

 AÉROPORT FRÉQUENCES
Type APP Nom RAIZET APP Féquence 121.3 MHZ
Type ATIS Nom ATIS Féquence 127.6 MHZ
Type GND Nom GND Féquence 121.85 MHZ
Type TWR Nom RAIZET TWR Féquence 118.4 MHZ

 SIDA DE NAVIGATION
Type VOR-DME Nom Pointe A Pitre Féquence 112900 KHZ
Type NDB Nom Pointe A Pitre Féquence 385 KHZ